Time;durP1;ratioP1;P1;durP2;ratioP2;P2;SDS_P1;SDS_P2;PMS_P1;PMS_P2;Temp;Humidity;BMP_temperature;BMP_pressure;BME280_temperature;BME280_humidity;BME280_pressure;Samples;Min_cycle;Max_cycle;Signal;HPM_P1;HPM_P2
2021/10/16 00:02:13;;;;;;;8.50;6.70;;;9.20;99.90;;;;;;5069442;28;20024;-75
2021/10/16 00:04:41;;;;;;;8.52;7.03;;;9.20;99.90;;;;;;5058415;28;20025;-74
2021/10/16 00:07:06;;;;;;;10.55;6.78;;;9.20;99.90;;;;;;5059690;28;20017;-75
2021/10/16 00:09:32;;;;;;;8.85;7.10;;;9.20;99.90;;;;;;5062341;28;20037;-75
2021/10/16 00:11:57;;;;;;;8.45;6.47;;;9.20;99.90;;;;;;5066255;28;20025;-74
2021/10/16 00:14:23;;;;;;;9.48;7.18;;;9.20;99.90;;;;;;5065072;28;20044;-74
2021/10/16 00:16:48;;;;;;;7.70;6.35;;;9.20;99.90;;;;;;5057133;28;20095;-74
2021/10/16 00:19:14;;;;;;;9.68;7.70;;;9.10;99.90;;;;;;5036035;28;20071;-74
2021/10/16 00:21:39;;;;;;;11.30;7.93;;;9.20;99.90;;;;;;5035813;28;20048;-74
2021/10/16 00:24:05;;;;;;;8.55;7.18;;;9.20;99.90;;;;;;5052765;28;20042;-74
2021/10/16 00:26:32;;;;;;;10.00;7.68;;;9.10;99.90;;;;;;5053524;28;20152;-75
2021/10/16 00:28:57;;;;;;;9.82;7.05;;;9.00;99.90;;;;;;5060349;28;20044;-75
2021/10/16 00:31:23;;;;;;;9.88;8.00;;;9.00;99.90;;;;;;5062548;28;20032;-74
2021/10/16 00:33:48;;;;;;;8.80;7.90;;;8.90;99.90;;;;;;5068415;28;20033;-75
2021/10/16 00:36:14;;;;;;;10.85;7.60;;;8.80;99.90;;;;;;5066602;28;20029;-74
2021/10/16 00:38:40;;;;;;;9.43;7.63;;;8.80;99.90;;;;;;5055284;28;20449;-75
2021/10/16 00:41:05;;;;;;;12.90;8.15;;;8.70;99.90;;;;;;5046125;28;20086;-75
2021/10/16 00:43:31;;;;;;;8.68;7.57;;;8.70;99.90;;;;;;5035369;28;20043;-74
2021/10/16 00:45:56;;;;;;;9.73;8.73;;;8.70;99.90;;;;;;5053381;28;20051;-75
2021/10/16 00:48:22;;;;;;;10.75;7.97;;;8.60;99.90;;;;;;5053213;28;20554;-74
2021/10/16 00:50:48;;;;;;;10.80;7.95;;;8.50;99.90;;;;;;5053191;28;20037;-74
2021/10/16 00:53:15;;;;;;;9.30;7.75;;;8.40;99.90;;;;;;5052917;28;20108;-75
2021/10/16 00:55:41;;;;;;;11.27;8.35;;;8.40;99.90;;;;;;5052922;28;20102;-74
2021/10/16 00:58:08;;;;;;;11.43;8.05;;;8.40;99.90;;;;;;5035324;28;20075;-74
2021/10/16 01:00:33;;;;;;;8.38;7.43;;;8.40;99.90;;;;;;5052658;28;20036;-74
2021/10/16 01:03:02;;;;;;;10.02;7.95;;;8.30;99.90;;;;;;5052699;28;20025;-75
2021/10/16 01:05:28;;;;;;;11.45;9.90;;;8.30;99.90;;;;;;5035115;28;20028;-74
2021/10/16 01:07:53;;;;;;;14.15;8.60;;;8.20;99.90;;;;;;5053183;28;20100;-74
2021/10/16 01:10:19;;;;;;;12.55;9.38;;;8.30;99.90;;;;;;5035369;28;20489;-74
2021/10/16 01:12:45;;;;;;;12.95;9.70;;;8.30;99.90;;;;;;5053038;28;20028;-74
2021/10/16 01:15:16;;;;;;;10.75;9.65;;;8.20;99.90;;;;;;5052310;28;20481;-74
2021/10/16 01:17:49;;;;;;;11.38;9.82;;;8.20;99.90;;;;;;5044655;28;20122;-74
2021/10/16 01:20:23;;;;;;;11.50;9.98;;;8.20;99.90;;;;;;5051753;28;20033;-74
2021/10/16 01:22:49;;;;;;;15.75;10.93;;;8.10;99.90;;;;;;5052473;28;20033;-74
2021/10/16 01:25:18;;;;;;;14.20;9.77;;;8.00;99.90;;;;;;5051457;28;20095;-74
2021/10/16 01:27:44;;;;;;;10.20;7.93;;;8.00;99.90;;;;;;5033619;28;20389;-74
2021/10/16 01:30:13;;;;;;;10.05;8.65;;;8.00;99.90;;;;;;5049731;28;20443;-74
2021/10/16 01:32:39;;;;;;;15.30;9.77;;;8.00;99.90;;;;;;5049688;28;20083;-74
2021/10/16 01:35:07;;;;;;;16.65;9.88;;;7.90;99.90;;;;;;5061586;28;20495;-75
2021/10/16 01:37:33;;;;;;;10.65;9.35;;;7.90;99.90;;;;;;5068258;28;20395;-74
2021/10/16 01:39:59;;;;;;;11.55;10.10;;;7.90;99.90;;;;;;5065052;28;20033;-75
2021/10/16 01:42:25;;;;;;;11.20;8.65;;;7.90;99.90;;;;;;5042326;28;20017;-75
2021/10/16 01:44:50;;;;;;;13.25;9.00;;;7.90;99.90;;;;;;5031886;28;20123;-74
2021/10/16 01:47:16;;;;;;;15.02;9.50;;;8.00;99.90;;;;;;5047867;28;20022;-74
2021/10/16 01:49:41;;;;;;;12.10;9.10;;;8.00;99.90;;;;;;5051962;28;20025;-75
2021/10/16 01:52:07;;;;;;;10.95;8.85;;;8.00;99.90;;;;;;5051245;28;20453;-75
2021/10/16 01:54:33;;;;;;;13.18;9.07;;;8.10;99.90;;;;;;5051025;28;20508;-75
2021/10/16 01:56:59;;;;;;;15.50;10.40;;;8.20;99.90;;;;;;5050979;28;20025;-75
2021/10/16 01:59:26;;;;;;;10.55;9.45;;;8.20;99.90;;;;;;5051316;28;20431;-75
2021/10/16 02:01:53;;;;;;;11.88;8.90;;;8.20;99.90;;;;;;5051722;28;20090;-75
2021/10/16 02:04:19;;;;;;;11.25;9.88;;;8.20;99.90;;;;;;5050896;28;20102;-75
2021/10/16 02:06:46;;;;;;;13.90;9.48;;;8.30;99.90;;;;;;5051308;28;20029;-75
2021/10/16 02:09:11;;;;;;;15.48;9.63;;;8.30;99.90;;;;;;5050945;28;20106;-75
2021/10/16 02:11:37;;;;;;;14.00;9.82;;;8.40;99.90;;;;;;5050880;28;20508;-75
2021/10/16 02:14:04;;;;;;;12.43;10.13;;;8.40;99.90;;;;;;5051307;28;20032;-75
2021/10/16 02:16:31;;;;;;;10.38;9.30;;;8.40;99.90;;;;;;5033860;28;20021;-74
2021/10/16 02:18:58;;;;;;;12.75;9.40;;;8.40;99.90;;;;;;5029200;28;20037;-75
2021/10/16 02:21:24;;;;;;;16.55;9.68;;;8.50;99.90;;;;;;5049285;28;20017;-74
2021/10/16 02:23:50;;;;;;;14.20;9.18;;;8.50;99.90;;;;;;5054182;23;20037;-74
2021/10/16 02:26:16;;;;;;;12.02;10.23;;;8.50;99.90;;;;;;5068546;28;20029;-73
2021/10/16 02:28:42;;;;;;;13.75;9.32;;;8.60;99.90;;;;;;5065808;28;20008;-74
2021/10/16 02:31:07;;;;;;;12.30;9.27;;;8.70;99.90;;;;;;5057378;28;20037;-75
2021/10/16 02:33:33;;;;;;;12.32;9.77;;;8.80;99.90;;;;;;5054585;28;20033;-75
2021/10/16 02:35:59;;;;;;;12.95;9.35;;;8.80;99.90;;;;;;5052395;28;20049;-74
2021/10/16 02:38:24;;;;;;;12.80;9.38;;;8.80;99.90;;;;;;5051619;28;20052;-74
2021/10/16 02:40:50;;;;;;;12.18;10.50;;;8.70;99.90;;;;;;5054421;28;20059;-74
2021/10/16 02:43:15;;;;;;;11.98;9.32;;;8.70;99.90;;;;;;5056165;28;20491;-75
2021/10/16 02:45:41;;;;;;;11.18;9.35;;;8.70;99.90;;;;;;5056124;28;20017;-74
2021/10/16 02:48:06;;;;;;;11.15;9.45;;;8.70;99.90;;;;;;5057407;28;20401;-74
2021/10/16 02:50:32;;;;;;;13.48;9.23;;;8.70;99.90;;;;;;5037881;28;20090;-75
2021/10/16 02:52:57;;;;;;;12.00;8.88;;;8.70;99.90;;;;;;5056501;28;20029;-74
2021/10/16 02:55:23;;;;;;;11.27;9.70;;;8.60;99.90;;;;;;5055972;28;20039;-74
2021/10/16 02:57:49;;;;;;;11.43;9.20;;;8.60;99.90;;;;;;5037815;28;20115;-76
2021/10/16 03:00:15;;;;;;;10.50;9.40;;;8.60;99.90;;;;;;5055451;28;20477;-74
2021/10/16 03:02:40;;;;;;;11.57;9.35;;;8.70;99.90;;;;;;5060711;28;20067;-75
2021/10/16 03:05:06;;;;;;;12.00;8.88;;;8.70;99.90;;;;;;5056175;28;20453;-74
2021/10/16 03:07:32;;;;;;;13.60;9.20;;;8.70;99.90;;;;;;5055272;28;20037;-74
2021/10/16 03:09:58;;;;;;;12.68;9.65;;;8.70;99.90;;;;;;5055158;28;20041;-74
2021/10/16 03:12:24;;;;;;;13.25;9.82;;;8.90;99.90;;;;;;5035280;28;20035;-74
2021/10/16 03:14:50;;;;;;;10.48;9.10;;;8.90;99.90;;;;;;5055272;28;20028;-76
2021/10/16 03:17:17;;;;;;;10.02;8.85;;;8.90;99.90;;;;;;5073865;28;20047;-75
2021/10/16 03:19:43;;;;;;;11.90;8.90;;;8.90;99.90;;;;;;5060847;28;20041;-75
2021/10/16 03:22:09;;;;;;;11.00;8.18;;;8.90;99.90;;;;;;5078288;28;20013;-75
2021/10/16 03:24:37;;;;;;;11.13;9.10;;;8.90;99.90;;;;;;5071991;28;20117;-74
2021/10/16 03:27:03;;;;;;;10.73;8.73;;;8.80;99.90;;;;;;5054812;28;20435;-73
2021/10/16 03:29:30;;;;;;;9.68;8.63;;;8.90;99.90;;;;;;5054644;28;20052;-75
2021/10/16 03:31:55;;;;;;;13.88;8.38;;;8.80;99.90;;;;;;5055264;28;20021;-74
2021/10/16 03:34:21;;;;;;;10.48;9.10;;;8.80;99.90;;;;;;5054871;28;20549;-74
2021/10/16 03:36:47;;;;;;;13.05;9.85;;;8.90;99.90;;;;;;5056001;28;20021;-74
2021/10/16 03:39:12;;;;;;;12.90;9.13;;;8.90;99.90;;;;;;5054897;28;20044;-74
2021/10/16 03:41:38;;;;;;;12.90;9.57;;;8.90;99.90;;;;;;5062964;28;20028;-75
2021/10/16 03:44:04;;;;;;;11.32;8.98;;;9.00;99.90;;;;;;5063732;28;20029;-75
2021/10/16 03:46:34;;;;;;;8.95;8.05;;;9.10;99.90;;;;;;5060404;28;20055;-76
2021/10/16 03:49:00;;;;;;;12.18;8.25;;;9.20;99.90;;;;;;5078724;28;20028;-76
2021/10/16 03:51:25;;;;;;;9.25;8.10;;;9.30;99.90;;;;;;5066921;28;20029;-75
2021/10/16 03:53:51;;;;;;;10.80;8.98;;;9.20;99.90;;;;;;5056294;28;20025;-74
2021/10/16 03:56:17;;;;;;;10.82;9.80;;;9.10;99.90;;;;;;5055062;28;20025;-74
2021/10/16 03:58:42;;;;;;;9.65;8.55;;;9.20;99.90;;;;;;5054326;28;20106;-75
2021/10/16 04:01:08;;;;;;;14.65;9.40;;;9.20;99.90;;;;;;5054567;28;20040;-73
2021/10/16 04:03:35;;;;;;;11.32;8.77;;;9.20;99.90;;;;;;5055263;28;20025;-73
2021/10/16 04:06:02;;;;;;;11.38;9.65;;;9.20;99.90;;;;;;5064310;28;20031;-74
2021/10/16 04:08:28;;;;;;;12.18;8.57;;;9.20;99.90;;;;;;5062465;28;20043;-76
2021/10/16 04:10:53;;;;;;;12.82;9.02;;;9.10;99.90;;;;;;5040263;28;20068;-74
2021/10/16 04:13:19;;;;;;;11.52;9.13;;;9.00;99.90;;;;;;5056527;28;20033;-74
2021/10/16 04:15:45;;;;;;;10.02;9.02;;;8.90;99.90;;;;;;5054862;28;20036;-74
2021/10/16 04:18:10;;;;;;;13.50;9.48;;;8.90;99.90;;;;;;5053301;28;20060;-74
2021/10/16 04:20:36;;;;;;;11.07;9.18;;;8.80;99.90;;;;;;5054716;28;20021;-74
2021/10/16 04:23:02;;;;;;;10.23;9.23;;;8.80;99.90;;;;;;5055703;28;20032;-74
2021/10/16 04:25:28;;;;;;;11.35;9.35;;;8.80;99.90;;;;;;5054553;28;20025;-73
2021/10/16 04:27:54;;;;;;;12.25;8.82;;;8.80;99.90;;;;;;5055244;28;20508;-76
2021/10/16 04:30:20;;;;;;;12.38;9.25;;;8.90;99.90;;;;;;5036243;28;20485;-75
2021/10/16 04:32:46;;;;;;;11.27;8.65;;;9.00;99.90;;;;;;5053208;28;20025;-75
2021/10/16 04:35:13;;;;;;;13.32;8.52;;;9.00;99.90;;;;;;5054683;28;20060;-74
2021/10/16 04:37:38;;;;;;;10.05;8.70;;;9.00;99.90;;;;;;5054827;28;20493;-75
2021/10/16 04:40:26;;;;;;;10.10;9.02;;;8.90;99.90;;;;;;5054341;28;20033;-75
2021/10/16 04:42:53;;;;;;;10.32;8.75;;;8.80;99.90;;;;;;5047697;28;20033;-75
2021/10/16 04:45:20;;;;;;;10.77;9.43;;;8.80;99.90;;;;;;5053622;28;20025;-73
2021/10/16 04:47:46;;;;;;;10.02;9.07;;;8.80;99.90;;;;;;5054385;28;20094;-74
2021/10/16 04:50:12;;;;;;;10.30;8.98;;;8.70;99.90;;;;;;5055225;28;20464;-73
2021/10/16 04:52:38;;;;;;;11.20;8.48;;;8.80;99.90;;;;;;5055167;28;20511;-74
2021/10/16 04:55:05;;;;;;;11.27;8.88;;;8.90;99.90;;;;;;5054267;28;20044;-74
2021/10/16 04:57:31;;;;;;;9.32;8.43;;;9.00;99.90;;;;;;5056312;28;20025;-74
2021/10/16 04:59:57;;;;;;;10.95;9.38;;;8.90;99.90;;;;;;5053451;28;20039;-74
2021/10/16 05:02:24;;;;;;;12.70;9.23;;;8.90;99.90;;;;;;5054109;28;20021;-74
2021/10/16 05:04:52;;;;;;;12.95;8.63;;;8.90;99.90;;;;;;5053602;28;20013;-76
2021/10/16 05:07:17;;;;;;;12.00;8.43;;;9.00;99.90;;;;;;5053485;28;20078;-75
2021/10/16 05:09:45;;;;;;;14.60;9.10;;;9.10;99.90;;;;;;5053553;28;20047;-74
2021/10/16 05:12:10;;;;;;;12.32;8.35;;;9.10;99.90;;;;;;5034850;28;20025;-74
2021/10/16 05:14:36;;;;;;;13.50;8.60;;;9.20;99.90;;;;;;5060663;28;20025;-73
2021/10/16 05:17:01;;;;;;;10.60;9.50;;;9.20;99.90;;;;;;5061877;28;20328;-75
2021/10/16 05:19:27;;;;;;;12.10;9.43;;;9.20;99.90;;;;;;5055107;28;20035;-74
2021/10/16 05:21:52;;;;;;;10.52;9.23;;;9.20;99.90;;;;;;5053381;28;20167;-74
2021/10/16 05:24:18;;;;;;;10.68;8.93;;;9.20;99.90;;;;;;5053214;28;20036;-72
2021/10/16 05:26:43;;;;;;;8.43;7.57;;;9.20;99.90;;;;;;5052781;28;20033;-74
2021/10/16 05:29:09;;;;;;;10.52;8.43;;;9.20;99.90;;;;;;5052098;28;20020;-74
2021/10/16 05:31:35;;;;;;;9.60;8.32;;;9.30;99.90;;;;;;5050685;28;20021;-75
2021/10/16 05:34:00;;;;;;;14.48;9.05;;;9.40;99.90;;;;;;5051992;28;20087;-73
2021/10/16 05:36:26;;;;;;;10.25;9.18;;;9.30;99.90;;;;;;5035340;28;20021;-74
2021/10/16 05:38:51;;;;;;;10.65;8.07;;;9.30;99.90;;;;;;5053006;28;20029;-74
2021/10/16 05:41:17;;;;;;;10.18;8.45;;;9.20;99.90;;;;;;5053114;28;20378;-74
2021/10/16 05:43:42;;;;;;;10.30;8.40;;;9.10;99.90;;;;;;5054079;28;20366;-74
2021/10/16 05:46:08;;;;;;;9.65;8.65;;;9.20;99.90;;;;;;5053445;28;20543;-73
2021/10/16 05:48:33;;;;;;;8.40;7.60;;;9.30;99.90;;;;;;5053312;28;20025;-75
2021/10/16 05:51:00;;;;;;;10.55;8.35;;;9.40;99.90;;;;;;5038327;28;20036;-75
2021/10/16 05:53:26;;;;;;;9.60;8.15;;;9.50;99.90;;;;;;5052519;28;20028;-75
2021/10/16 05:55:51;;;;;;;11.43;7.72;;;9.50;99.90;;;;;;5052730;28;20051;-74
2021/10/16 05:58:17;;;;;;;14.00;8.18;;;9.40;99.90;;;;;;5052551;28;20043;-75
2021/10/16 06:00:43;;;;;;;10.27;8.15;;;9.30;99.90;;;;;;5052752;28;20444;-75
2021/10/16 06:03:08;;;;;;;12.57;8.35;;;9.40;99.90;;;;;;5053830;28;20469;-75
2021/10/16 06:05:38;;;;;;;10.65;8.43;;;9.40;99.90;;;;;;5055607;28;20021;-74
2021/10/16 06:08:04;;;;;;;9.85;7.53;;;9.40;99.90;;;;;;5032144;28;20392;-74
2021/10/16 06:10:30;;;;;;;9.25;7.95;;;9.50;99.90;;;;;;5056284;28;20025;-74
2021/10/16 06:12:56;;;;;;;9.93;8.93;;;9.50;99.90;;;;;;5054294;28;20108;-74
2021/10/16 06:15:22;;;;;;;11.07;8.70;;;9.40;99.90;;;;;;5054914;28;20582;-75
2021/10/16 06:17:47;;;;;;;11.43;8.90;;;9.50;99.90;;;;;;5057802;28;20113;-75
2021/10/16 06:20:13;;;;;;;13.05;9.25;;;9.40;99.90;;;;;;5056791;28;20060;-74
2021/10/16 06:22:39;;;;;;;12.57;8.80;;;9.20;99.90;;;;;;5040943;28;20040;-73
2021/10/16 06:25:05;;;;;;;14.82;9.25;;;9.20;99.90;;;;;;5056055;28;20036;-75
2021/10/16 06:27:31;;;;;;;11.07;8.27;;;9.20;99.90;;;;;;5058173;28;20028;-73
2021/10/16 06:29:56;;;;;;;9.88;8.77;;;9.20;99.90;;;;;;5056403;28;20377;-75
2021/10/16 06:32:22;;;;;;;10.80;8.38;;;9.20;99.90;;;;;;5057093;28;20033;-74
2021/10/16 06:34:48;;;;;;;13.38;8.80;;;9.20;99.90;;;;;;5057717;28;20070;-74
2021/10/16 06:37:14;;;;;;;11.27;9.13;;;9.20;99.90;;;;;;5039401;28;20033;-73
2021/10/16 06:39:39;;;;;;;9.50;8.45;;;9.30;99.90;;;;;;5056866;28;20044;-75
2021/10/16 06:42:05;;;;;;;12.18;9.10;;;9.40;99.90;;;;;;5058049;28;20025;-75
2021/10/16 06:44:30;;;;;;;10.95;8.57;;;9.30;99.90;;;;;;5065002;28;20032;-73
2021/10/16 06:46:56;;;;;;;12.32;8.52;;;9.30;99.90;;;;;;5061815;28;20117;-73
2021/10/16 06:49:22;;;;;;;9.98;8.50;;;9.30;99.90;;;;;;5044703;28;20484;-73
2021/10/16 06:51:48;;;;;;;15.70;8.80;;;9.30;99.90;;;;;;5065187;28;20083;-73
2021/10/16 06:54:14;;;;;;;9.05;8.15;;;9.40;99.90;;;;;;5061813;28;20502;-75
2021/10/16 06:56:39;;;;;;;10.35;9.07;;;9.40;99.90;;;;;;5049769;28;20124;-74
2021/10/16 06:59:05;;;;;;;10.63;8.02;;;9.40;99.90;;;;;;5056942;28;20064;-75
2021/10/16 07:01:31;;;;;;;9.48;8.48;;;9.50;99.90;;;;;;5038056;28;20052;-76
2021/10/16 07:03:56;;;;;;;12.65;9.23;;;9.50;99.90;;;;;;5055585;28;20070;-75
2021/10/16 07:06:22;;;;;;;11.43;9.10;;;9.60;99.90;;;;;;5056679;28;20036;-75
2021/10/16 07:08:47;;;;;;;13.65;8.52;;;9.60;99.90;;;;;;5059095;28;20040;-75
2021/10/16 07:11:13;;;;;;;13.88;10.25;;;9.50;99.90;;;;;;5056068;28;20033;-75
2021/10/16 07:13:39;;;;;;;11.27;9.15;;;9.40;99.90;;;;;;5054487;28;20033;-74
2021/10/16 07:16:05;;;;;;;9.98;8.93;;;9.50;99.90;;;;;;5055971;28;20025;-74
2021/10/16 07:18:31;;;;;;;12.38;8.73;;;9.60;99.90;;;;;;5055875;28;20395;-75
2021/10/16 07:20:56;;;;;;;13.50;8.95;;;9.60;99.90;;;;;;5055728;28;20040;-75
2021/10/16 07:23:28;;;;;;;9.70;8.65;;;9.70;99.90;;;;;;5053946;28;20028;-73
2021/10/16 07:25:56;;;;;;;10.23;8.35;;;9.70;99.90;;;;;;5036278;28;20030;-73
2021/10/16 07:28:23;;;;;;;12.02;8.88;;;9.70;99.90;;;;;;5045186;28;20052;-74
2021/10/16 07:30:49;;;;;;;11.45;9.02;;;9.80;99.90;;;;;;5053981;28;20116;-73
2021/10/16 07:33:14;;;;;;;8.90;7.95;;;9.80;99.90;;;;;;5053918;28;20060;-75
2021/10/16 07:35:41;;;;;;;10.32;8.60;;;9.90;99.90;;;;;;5036058;28;20021;-76
2021/10/16 07:38:07;;;;;;;11.05;9.20;;;10.00;99.90;;;;;;5052828;28;20033;-74
2021/10/16 07:40:33;;;;;;;9.27;8.30;;;9.80;99.90;;;;;;5055366;28;20050;-74
2021/10/16 07:42:58;;;;;;;9.70;8.30;;;9.90;99.90;;;;;;5054454;28;20381;-75
2021/10/16 07:45:24;;;;;;;10.93;8.65;;;9.90;99.90;;;;;;5036467;28;20025;-74
2021/10/16 07:47:50;;;;;;;9.25;7.80;;;10.10;99.90;;;;;;5056948;28;20020;-72
2021/10/16 07:50:16;;;;;;;9.15;8.15;;;10.30;99.90;;;;;;5054932;28;20551;-75
2021/10/16 07:52:42;;;;;;;13.07;8.40;;;10.40;99.90;;;;;;5054990;28;20406;-76
2021/10/16 07:55:07;;;;;;;12.27;8.73;;;10.20;99.90;;;;;;5055390;28;20043;-75
2021/10/16 07:57:33;;;;;;;12.23;8.52;;;10.30;99.90;;;;;;5053581;28;20156;-78
2021/10/16 07:59:58;;;;;;;9.77;8.50;;;10.30;99.90;;;;;;5056116;28;20524;-78
2021/10/16 08:02:24;;;;;;;11.23;8.68;;;10.40;99.90;;;;;;5056327;28;20370;-75
2021/10/16 08:04:49;;;;;;;13.05;8.75;;;10.30;99.90;;;;;;5054855;28;20017;-75
2021/10/16 08:07:15;;;;;;;15.55;9.15;;;10.30;99.90;;;;;;5055717;28;20029;-76
2021/10/16 08:09:41;;;;;;;9.82;8.85;;;10.50;99.90;;;;;;5056505;28;20477;-77
2021/10/16 08:12:06;;;;;;;15.32;9.18;;;10.30;99.90;;;;;;5061351;28;20076;-78
2021/10/16 08:14:32;;;;;;;12.05;9.40;;;10.30;99.90;;;;;;5067342;28;20025;-77
2021/10/16 08:16:57;;;;;;;13.18;9.35;;;10.60;99.90;;;;;;5067890;28;20043;-75
2021/10/16 08:19:23;;;;;;;11.52;9.52;;;10.60;99.90;;;;;;5069631;28;20033;-75
2021/10/16 08:21:49;;;;;;;13.23;8.55;;;10.60;99.90;;;;;;5051938;28;20021;-76
2021/10/16 08:24:14;;;;;;;11.90;9.98;;;10.80;99.90;;;;;;5086447;23;20102;-75
2021/10/16 08:26:40;;;;;;;11.25;9.90;;;10.90;99.90;;;;;;5072939;28;20024;-73
2021/10/16 08:29:05;;;;;;;12.57;10.85;;;10.80;99.90;;;;;;5074229;28;20047;-74
2021/10/16 08:31:31;;;;;;;15.75;12.05;;;10.70;99.90;;;;;;5084380;28;20023;-72
2021/10/16 08:33:57;;;;;;;13.10;11.63;;;10.70;99.90;;;;;;5078903;28;20027;-73
2021/10/16 08:36:22;;;;;;;22.83;13.50;;;10.60;99.90;;;;;;5069452;28;20020;-73
2021/10/16 08:38:48;;;;;;;20.23;13.23;;;10.60;99.90;;;;;;5067481;28;20028;-73
2021/10/16 08:41:14;;;;;;;18.27;13.50;;;10.60;99.90;;;;;;5058513;28;20033;-73
2021/10/16 08:43:40;;;;;;;19.30;12.68;;;10.60;99.90;;;;;;5054059;28;20051;-73
2021/10/16 08:46:07;;;;;;;21.30;13.98;;;10.50;99.90;;;;;;5054128;28;20033;-72
2021/10/16 08:48:33;;;;;;;22.35;13.65;;;10.60;99.90;;;;;;5054139;28;20021;-74
2021/10/16 08:51:01;;;;;;;24.00;14.32;;;10.50;99.90;;;;;;5052662;28;20036;-72
2021/10/16 08:53:27;;;;;;;20.67;14.18;;;10.60;99.90;;;;;;5035515;28;20481;-72
2021/10/16 08:55:53;;;;;;;19.70;13.57;;;10.60;99.90;;;;;;5053355;28;20151;-73
2021/10/16 08:58:20;;;;;;;21.25;13.30;;;10.60;99.90;;;;;;5052455;28;20029;-73
2021/10/16 09:00:52;;;;;;;19.60;13.93;;;10.70;99.90;;;;;;5054258;28;20024;-72
2021/10/16 09:03:23;;;;;;;18.08;13.80;;;10.80;99.90;;;;;;5035678;28;20048;-73
2021/10/16 09:06:01;;;;;;;25.73;15.57;;;10.80;99.90;;;;;;5037013;28;20020;-72
2021/10/16 09:08:32;;;;;;;23.48;15.80;;;10.70;99.90;;;;;;5053262;28;20040;-73
2021/10/16 09:11:16;;;;;;;23.48;15.55;;;10.70;99.90;;;;;;5050105;28;20037;-72
2021/10/16 09:13:50;;;;;;;27.50;17.10;;;10.90;99.90;;;;;;5050708;28;20021;-73
2021/10/16 09:16:25;;;;;;;24.33;16.20;;;10.90;99.90;;;;;;5052895;28;20094;-74
2021/10/16 09:19:18;;;;;;;25.08;16.98;;;11.10;99.90;;;;;;5048137;28;20438;-74
2021/10/16 09:21:53;;;;;;;26.48;16.70;;;11.00;99.90;;;;;;5052561;28;20408;-71
2021/10/16 09:24:27;;;;;;;23.45;16.65;;;10.90;99.90;;;;;;5035044;28;20029;-72
2021/10/16 09:26:55;;;;;;;25.15;17.23;;;10.80;99.90;;;;;;5035239;28;20029;-72
2021/10/16 09:29:23;;;;;;;25.20;16.60;;;10.70;99.90;;;;;;5052652;28;20540;-72
2021/10/16 09:31:53;;;;;;;23.00;15.57;;;10.80;99.90;;;;;;5053103;28;20021;-73
2021/10/16 09:34:26;;;;;;;20.65;16.20;;;11.00;99.90;;;;;;5047646;28;20079;-71
2021/10/16 09:37:00;;;;;;;26.33;16.70;;;11.00;99.90;;;;;;5046509;28;20032;-72
2021/10/16 09:39:25;;;;;;;23.25;16.30;;;11.00;99.90;;;;;;5046324;28;20094;-71
2021/10/16 09:41:51;;;;;;;22.80;15.27;;;11.40;99.90;;;;;;5053706;28;20049;-74
2021/10/16 09:44:23;;;;;;;24.08;16.85;;;11.30;99.90;;;;;;5056212;28;20107;-74
2021/10/16 09:47:18;;;;;;;21.10;14.73;;;11.30;99.90;;;;;;5034866;28;20560;-72
2021/10/16 09:49:57;;;;;;;21.98;16.08;;;11.20;99.90;;;;;;5038005;28;20029;-72
2021/10/16 09:52:35;;;;;;;19.65;15.60;;;11.10;99.90;;;;;;5060275;28;20029;-72
2021/10/16 09:55:01;;;;;;;18.65;14.13;;;11.30;99.90;;;;;;5052332;28;20029;-74
2021/10/16 09:57:28;;;;;;;19.23;14.43;;;11.50;99.90;;;;;;5059692;28;20032;-83
2021/10/16 09:59:55;;;;;;;17.75;14.50;;;11.80;99.90;;;;;;5077707;28;20088;-83
2021/10/16 10:02:21;;;;;;;18.73;15.32;;;12.00;99.90;;;;;;5084709;28;20035;-84
2021/10/16 10:04:48;;;;;;;23.80;15.50;;;11.90;99.90;;;;;;5068030;28;20408;-83
2021/10/16 10:07:17;;;;;;;17.25;14.30;;;11.60;99.90;;;;;;5050691;28;20028;-80
2021/10/16 10:09:45;;;;;;;17.73;14.05;;;11.50;99.90;;;;;;5068879;28;20021;-85
2021/10/16 10:12:11;;;;;;;15.77;13.63;;;11.40;99.90;;;;;;5069482;28;20045;-79
2021/10/16 10:14:50;;;;;;;16.17;13.98;;;11.50;99.90;;;;;;5055455;28;20419;-75
2021/10/16 10:17:28;;;;;;;19.25;14.88;;;11.70;99.90;;;;;;5053497;28;20037;-76
2021/10/16 10:19:57;;;;;;;16.02;14.30;;;11.80;99.90;;;;;;5048287;28;20029;-77
2021/10/16 10:22:23;;;;;;;14.07;12.57;;;11.80;99.90;;;;;;5057577;28;20017;-76
2021/10/16 10:24:51;;;;;;;16.50;13.85;;;12.20;99.90;;;;;;5056782;28;20040;-75
2021/10/16 10:27:20;;;;;;;16.42;13.50;;;12.50;99.90;;;;;;5055570;28;20029;-75
2021/10/16 10:29:49;;;;;;;16.65;14.48;;;12.50;99.90;;;;;;5041153;28;20021;-75
2021/10/16 10:32:29;;;;;;;15.70;14.10;;;12.50;99.90;;;;;;5056700;28;20032;-76
2021/10/16 10:34:59;;;;;;;14.55;12.90;;;12.60;99.90;;;;;;5044170;28;20034;-72
2021/10/16 10:37:41;;;;;;;16.17;13.63;;;12.80;99.90;;;;;;5061028;28;20144;-73
2021/10/16 10:40:15;;;;;;;15.73;14.10;;;12.90;99.90;;;;;;5056862;28;20044;-75
2021/10/16 10:42:44;;;;;;;15.90;14.35;;;13.00;99.90;;;;;;5053241;28;20029;-73
2021/10/16 10:45:25;;;;;;;15.43;13.68;;;13.00;99.90;;;;;;5059871;28;20079;-72
2021/10/16 10:48:07;;;;;;;15.35;13.75;;;13.10;99.90;;;;;;5059782;28;20108;-73
2021/10/16 10:50:47;;;;;;;15.43;13.23;;;12.60;99.90;;;;;;5059499;28;20040;-72
2021/10/16 10:53:25;;;;;;;18.65;14.15;;;12.50;99.90;;;;;;5043443;28;20025;-73
2021/10/16 10:56:01;;;;;;;15.77;13.95;;;12.80;99.90;;;;;;5046321;28;20017;-72
2021/10/16 10:58:53;;;;;;;15.77;13.77;;;13.20;99.90;;;;;;5060334;28;20033;-72
2021/10/16 11:01:51;;;;;;;17.13;14.02;;;13.10;99.90;;;;;;5054522;28;20024;-73
2021/10/16 11:04:37;;;;;;;15.57;13.63;;;12.90;99.90;;;;;;5059074;28;20017;-73
2021/10/16 11:07:05;;;;;;;20.08;13.75;;;13.20;99.90;;;;;;5060139;28;20110;-73
2021/10/16 11:09:31;;;;;;;15.55;13.95;;;13.50;99.90;;;;;;5059438;28;20017;-75
2021/10/16 11:11:58;;;;;;;15.18;13.63;;;13.50;99.90;;;;;;5057736;28;20032;-74
2021/10/16 11:14:37;;;;;;;15.68;14.13;;;13.70;99.90;;;;;;5056622;28;20496;-73
2021/10/16 11:17:05;;;;;;;15.77;13.95;;;13.50;99.90;;;;;;5059118;28;20025;-73
2021/10/16 11:19:55;;;;;;;16.45;14.55;;;13.60;99.90;;;;;;5044372;28;20021;-73
2021/10/16 11:22:37;;;;;;;15.80;14.30;;;13.90;99.90;;;;;;5065028;28;20397;-73
2021/10/16 11:25:03;;;;;;;19.75;14.63;;;14.50;99.90;;;;;;5063122;28;20117;-72
2021/10/16 11:27:29;;;;;;;17.67;15.95;;;14.20;99.90;;;;;;5064417;28;20025;-74
2021/10/16 11:29:54;;;;;;;19.95;15.45;;;14.00;99.90;;;;;;5066812;28;20025;-73
2021/10/16 11:32:23;;;;;;;17.45;14.70;;;14.00;99.90;;;;;;5066353;28;20029;-72
2021/10/16 11:34:58;;;;;;;16.60;14.98;;;13.90;99.90;;;;;;5068241;28;20024;-73
2021/10/16 11:37:35;;;;;;;18.63;14.63;;;13.80;99.90;;;;;;5046496;28;20028;-73
2021/10/16 11:40:13;;;;;;;17.50;13.02;;;13.60;99.90;;;;;;5059524;28;20028;-73
2021/10/16 11:42:43;;;;;;;16.67;15.07;;;13.90;99.90;;;;;;5058685;28;20079;-72
2021/10/16 11:45:12;;;;;;;15.13;13.20;;;14.00;99.90;;;;;;5058331;28;20128;-74
2021/10/16 11:47:40;;;;;;;15.70;14.07;;;14.00;99.90;;;;;;5039725;28;20025;-72
2021/10/16 11:50:14;;;;;;;16.05;13.60;;;14.50;99.90;;;;;;5055661;28;20335;-72
2021/10/16 11:52:41;;;;;;;15.25;12.95;;;14.60;99.90;;;;;;5055147;28;20024;-71
2021/10/16 11:55:11;;;;;;;15.82;14.27;;;14.70;99.90;;;;;;5040698;28;20080;-73
2021/10/16 11:57:37;;;;;;;19.87;14.50;;;14.60;99.90;;;;;;5039313;28;20029;-72
2021/10/16 12:00:19;;;;;;;13.73;12.30;;;14.10;99.90;;;;;;5057633;28;20029;-72
2021/10/16 12:02:45;;;;;;;16.13;14.55;;;13.90;99.90;;;;;;5063817;28;20021;-72
2021/10/16 12:05:13;;;;;;;13.90;12.43;;;13.60;99.90;;;;;;5076014;28;20017;-74
2021/10/16 12:07:38;;;;;;;15.18;13.57;;;13.80;99.90;;;;;;5077410;28;20072;-73
2021/10/16 12:10:29;;;;;;;18.38;14.07;;;14.00;99.90;;;;;;5074912;28;20063;-72
2021/10/16 12:13:09;;;;;;;14.93;13.23;;;13.80;99.90;;;;;;5059016;28;20066;-73
2021/10/16 12:15:39;;;;;;;17.05;15.35;;;14.10;99.90;;;;;;5054016;28;20170;-73
2021/10/16 12:18:05;;;;;;;15.47;13.97;;;14.00;99.90;;;;;;5054525;28;20097;-72
2021/10/16 12:20:52;;;;;;;14.85;13.35;;;14.30;99.90;;;;;;5054602;28;20283;-72
2021/10/16 12:23:17;;;;;;;14.23;12.82;;;14.30;99.90;;;;;;5058272;28;20021;-73
2021/10/16 12:25:52;;;;;;;14.70;13.20;;;14.30;99.90;;;;;;5058611;28;20148;-73
2021/10/16 12:28:19;;;;;;;14.43;13.02;;;14.20;99.90;;;;;;5058832;28;20477;-73
2021/10/16 12:31:03;;;;;;;16.00;14.32;;;14.30;99.90;;;;;;5058702;28;20085;-72
2021/10/16 12:33:28;;;;;;;18.60;12.77;;;14.40;99.90;;;;;;5054532;28;20032;-73
2021/10/16 12:36:02;;;;;;;15.80;13.05;;;14.20;99.90;;;;;;5054096;28;20421;-73
2021/10/16 12:38:45;;;;;;;12.85;11.63;;;14.20;99.90;;;;;;5054676;28;20054;-73
2021/10/16 12:41:25;;;;;;;14.90;12.90;;;14.20;99.90;;;;;;5053914;28;20021;-73
2021/10/16 12:43:52;;;;;;;13.20;11.77;;;14.20;99.90;;;;;;5053841;28;20021;-74
2021/10/16 12:46:30;;;;;;;11.57;10.55;;;14.40;99.90;;;;;;5054371;28;20028;-73